createdAt,value
2019-05-20T00:00:03.612Z,15.20
2019-05-20T00:01:07.265Z,15.30
2019-05-20T00:02:24.373Z,15.30
2019-05-20T00:03:16.638Z,15.30
2019-05-20T00:04:20.764Z,15.30
2019-05-20T00:05:24.458Z,15.30
2019-05-20T00:06:28.685Z,15.30
2019-05-20T00:07:32.263Z,15.30
2019-05-20T00:08:36.420Z,15.30
2019-05-20T00:09:40.030Z,15.40
2019-05-20T00:10:44.523Z,15.40
2019-05-20T00:11:48.167Z,15.40
2019-05-20T00:12:52.295Z,15.40
2019-05-20T00:13:55.865Z,15.40
2019-05-20T00:15:00.023Z,15.40
2019-05-20T00:16:03.599Z,15.50
2019-05-20T00:17:07.752Z,15.50
2019-05-20T00:18:11.343Z,15.40
2019-05-20T00:19:15.476Z,15.40
2019-05-20T00:20:19.100Z,15.40
2019-05-20T00:21:23.250Z,15.40
2019-05-20T00:22:26.791Z,15.40
2019-05-20T00:23:30.919Z,15.40
2019-05-20T00:24:34.499Z,15.40
2019-05-20T00:25:38.651Z,15.40
2019-05-20T00:26:42.227Z,15.40
2019-05-20T00:27:46.356Z,15.40
2019-05-20T00:28:49.962Z,15.40
2019-05-20T00:29:54.094Z,15.40
2019-05-20T00:30:57.714Z,15.40
2019-05-20T00:32:01.836Z,15.50
2019-05-20T00:33:05.444Z,15.40
2019-05-20T00:34:09.562Z,15.40
2019-05-20T00:35:13.487Z,15.50
2019-05-20T00:36:17.620Z,15.40
2019-05-20T00:37:21.235Z,15.30
2019-05-20T00:38:25.368Z,15.30
2019-05-20T00:39:28.940Z,15.40
2019-05-20T00:40:33.065Z,15.30
2019-05-20T00:41:36.639Z,15.30
2019-05-20T00:42:40.802Z,15.30
2019-05-20T00:43:44.367Z,15.30
2019-05-20T00:44:48.500Z,15.30
2019-05-20T00:45:52.062Z,15.30
2019-05-20T00:46:56.243Z,15.30
2019-05-20T00:47:59.819Z,15.30
2019-05-20T00:49:03.937Z,15.30
2019-05-20T00:50:07.852Z,15.30
2019-05-20T00:51:11.979Z,15.20
2019-05-20T00:52:15.602Z,15.20
2019-05-20T00:53:19.799Z,15.20
2019-05-20T00:54:23.394Z,15.20
2019-05-20T00:55:30.600Z,15.10
2019-05-20T00:56:34.343Z,15.10
2019-05-20T00:57:38.510Z,15.10
2019-05-20T00:58:42.075Z,15.10
2019-05-20T00:59:46.203Z,15.00
2019-05-20T01:00:49.806Z,14.90
2019-05-20T01:01:53.917Z,15.00
2019-05-20T01:02:57.711Z,15.00
2019-05-20T01:04:01.837Z,14.90
2019-05-20T01:05:06.244Z,14.90
2019-05-20T01:06:10.371Z,14.80
2019-05-20T01:07:13.938Z,14.80
2019-05-20T01:08:18.131Z,14.80
2019-05-20T01:09:21.687Z,14.80
2019-05-20T01:10:25.816Z,14.70
2019-05-20T01:11:29.390Z,14.80
2019-05-20T01:12:33.519Z,14.80
2019-05-20T01:13:37.122Z,14.70
2019-05-20T01:14:41.278Z,14.80
2019-05-20T01:15:44.914Z,14.80
2019-05-20T01:16:49.291Z,14.80
2019-05-20T01:17:52.914Z,14.80
2019-05-20T01:18:57.031Z,14.70
2019-05-20T01:20:00.610Z,14.70
2019-05-20T01:21:04.839Z,14.70
2019-05-20T01:22:08.411Z,14.70
2019-05-20T01:23:12.544Z,14.60
2019-05-20T01:24:16.114Z,14.60
2019-05-20T01:25:20.240Z,14.60
2019-05-20T01:26:23.844Z,14.60
2019-05-20T01:27:27.968Z,14.60
2019-05-20T01:28:31.543Z,14.60
2019-05-20T01:29:35.734Z,14.60
2019-05-20T01:30:39.350Z,14.60
2019-05-20T01:31:43.548Z,14.70
2019-05-20T01:32:47.120Z,14.60
2019-05-20T01:33:51.386Z,14.60
2019-05-20T01:34:54.952Z,14.70
2019-05-20T01:35:59.115Z,14.70
2019-05-20T01:37:02.699Z,14.70
2019-05-20T01:38:06.831Z,14.70
2019-05-20T01:39:10.406Z,14.70
2019-05-20T01:40:15.671Z,14.60
2019-05-20T01:41:19.296Z,14.70
2019-05-20T01:42:23.410Z,14.70
2019-05-20T01:43:26.993Z,14.70
2019-05-20T01:44:31.110Z,14.70
2019-05-20T01:45:34.678Z,14.70
2019-05-20T01:46:38.847Z,14.70
2019-05-20T01:47:42.413Z,14.60
2019-05-20T01:48:46.541Z,14.70
2019-05-20T01:49:50.153Z,14.60
2019-05-20T01:50:54.280Z,14.60
2019-05-20T01:51:57.862Z,14.60
2019-05-20T01:53:01.981Z,14.60
2019-05-20T01:54:05.556Z,14.50
2019-05-20T01:55:10.752Z,14.50
2019-05-20T01:56:14.364Z,14.50
2019-05-20T01:57:18.485Z,14.50
2019-05-20T01:58:22.052Z,14.50
2019-05-20T01:59:26.206Z,14.50
2019-05-20T02:00:29.807Z,14.50
2019-05-20T02:01:33.940Z,14.50
2019-05-20T02:02:37.587Z,14.40
2019-05-20T02:03:41.703Z,14.40
2019-05-20T02:04:45.290Z,14.40
2019-05-20T02:05:49.453Z,14.40
2019-05-20T02:06:53.198Z,14.40
2019-05-20T02:07:57.356Z,14.40
2019-05-20T02:09:00.919Z,14.40
2019-05-20T02:10:09.299Z,14.40
2019-05-20T02:11:12.867Z,14.40
2019-05-20T02:12:17.036Z,14.40
2019-05-20T02:13:20.609Z,14.40
2019-05-20T02:14:25.872Z,14.30
2019-05-20T02:15:46.458Z,14.40
2019-05-20T02:16:50.680Z,14.40
2019-05-20T02:17:54.617Z,14.30
2019-05-20T02:18:58.739Z,14.30
2019-05-20T02:20:02.432Z,14.30
2019-05-20T02:21:06.708Z,14.30
2019-05-20T02:22:10.280Z,14.30
2019-05-20T02:23:15.534Z,14.20
2019-05-20T02:24:19.152Z,14.30
2019-05-20T02:25:23.273Z,14.30
2019-05-20T02:26:26.854Z,14.30
2019-05-20T02:27:31.107Z,14.20
2019-05-20T02:28:34.689Z,14.20
2019-05-20T02:29:38.855Z,14.20
2019-05-20T02:30:42.436Z,14.30
2019-05-20T02:31:46.564Z,14.30
2019-05-20T02:32:50.137Z,14.30
2019-05-20T02:33:54.278Z,14.30
2019-05-20T02:34:57.873Z,14.30
2019-05-20T02:36:02.000Z,14.30
2019-05-20T02:37:05.613Z,14.30
2019-05-20T02:38:09.805Z,14.30
2019-05-20T02:39:13.376Z,14.20
2019-05-20T02:40:17.649Z,14.20
2019-05-20T02:41:21.356Z,14.20
2019-05-20T02:42:25.504Z,14.10
2019-05-20T02:43:29.173Z,14.10
2019-05-20T02:44:33.304Z,14.10
2019-05-20T02:45:36.880Z,14.10
2019-05-20T02:46:41.064Z,14.10
2019-05-20T02:47:44.633Z,14.10
2019-05-20T02:48:48.828Z,14.00
2019-05-20T02:49:52.391Z,14.00
2019-05-20T02:50:56.523Z,13.90
2019-05-20T02:52:00.194Z,13.90
2019-05-20T02:53:04.320Z,13.90
2019-05-20T02:54:07.923Z,13.90
2019-05-20T02:55:12.206Z,13.90
2019-05-20T02:56:15.768Z,13.90
2019-05-20T02:57:19.898Z,13.90
2019-05-20T02:58:23.512Z,13.90
2019-05-20T02:59:27.642Z,13.80
2019-05-20T03:00:31.239Z,13.90
2019-05-20T03:01:35.376Z,13.80
2019-05-20T03:02:39.019Z,13.70
2019-05-20T03:03:43.144Z,13.60
2019-05-20T03:04:46.725Z,13.60
2019-05-20T03:05:50.890Z,13.60
2019-05-20T03:06:54.468Z,13.70
2019-05-20T03:07:58.662Z,13.70
2019-05-20T03:09:02.222Z,13.70
2019-05-20T03:10:09.696Z,13.70
2019-05-20T03:11:13.306Z,13.80
2019-05-20T03:12:17.423Z,13.80
2019-05-20T03:13:21.001Z,13.80
2019-05-20T03:14:25.130Z,13.70
2019-05-20T03:15:28.713Z,13.70
2019-05-20T03:16:32.869Z,13.70
2019-05-20T03:17:36.434Z,13.70
2019-05-20T03:18:40.560Z,13.70
2019-05-20T03:19:44.136Z,13.70
2019-05-20T03:20:48.311Z,13.70
2019-05-20T03:21:51.882Z,13.70
2019-05-20T03:22:56.071Z,13.70
2019-05-20T03:23:59.688Z,13.70
2019-05-20T03:25:04.860Z,13.80
2019-05-20T03:26:08.472Z,13.70
2019-05-20T03:27:12.600Z,13.70
2019-05-20T03:28:16.212Z,13.70
2019-05-20T03:29:20.335Z,13.70
2019-05-20T03:30:23.904Z,13.70
2019-05-20T03:31:28.029Z,13.70
2019-05-20T03:32:31.631Z,13.70
2019-05-20T03:33:35.759Z,13.70
2019-05-20T03:34:47.989Z,13.70
2019-05-20T03:35:45.099Z,13.60
2019-05-20T03:36:48.680Z,13.60
2019-05-20T03:37:52.831Z,13.50
2019-05-20T03:38:56.441Z,13.60
2019-05-20T03:40:00.568Z,13.60
2019-05-20T03:41:04.269Z,13.60
2019-05-20T03:42:08.343Z,13.50
2019-05-20T03:43:12.055Z,13.50
2019-05-20T03:44:16.162Z,13.50
2019-05-20T03:45:19.731Z,13.50
2019-05-20T03:46:23.876Z,13.50
2019-05-20T03:47:27.428Z,13.60
2019-05-20T03:48:31.591Z,13.60
2019-05-20T03:49:35.155Z,13.60
2019-05-20T03:50:39.287Z,13.70
2019-05-20T03:51:42.864Z,13.70
2019-05-20T03:52:46.996Z,13.70
2019-05-20T03:53:50.603Z,13.70
2019-05-20T03:54:54.770Z,13.80
2019-05-20T03:55:58.373Z,13.80
2019-05-20T03:57:02.546Z,13.80
2019-05-20T03:58:06.130Z,13.80
2019-05-20T03:59:10.289Z,13.80
2019-05-20T04:00:14.598Z,13.80
2019-05-20T04:01:18.759Z,13.80
2019-05-20T04:02:22.372Z,13.90
2019-05-20T04:03:26.539Z,13.90
2019-05-20T04:04:30.121Z,13.90
2019-05-20T04:05:34.238Z,13.90
2019-05-20T04:06:37.886Z,13.80
2019-05-20T04:07:41.975Z,13.80
2019-05-20T04:08:45.560Z,13.80
2019-05-20T04:09:49.683Z,13.70
2019-05-20T04:10:53.251Z,13.70
2019-05-20T04:11:57.416Z,13.60
2019-05-20T04:13:00.988Z,13.60
2019-05-20T04:14:05.120Z,13.60
2019-05-20T04:15:08.843Z,13.60
2019-05-20T04:16:12.967Z,13.60
2019-05-20T04:17:16.604Z,13.60
2019-05-20T04:18:20.742Z,13.60
2019-05-20T04:19:24.314Z,13.60
2019-05-20T04:20:28.478Z,13.60
2019-05-20T04:21:32.034Z,13.60
2019-05-20T04:22:36.197Z,13.60
2019-05-20T04:23:40.107Z,13.60
2019-05-20T04:24:44.338Z,13.60
2019-05-20T04:25:47.913Z,13.70
2019-05-20T04:26:55.120Z,13.70
2019-05-20T04:27:58.746Z,13.80
2019-05-20T04:29:03.123Z,13.80
2019-05-20T04:30:07.792Z,13.80
2019-05-20T04:31:11.868Z,13.80
2019-05-20T04:32:15.431Z,13.80
2019-05-20T04:33:19.601Z,13.80
2019-05-20T04:34:23.231Z,13.80
2019-05-20T04:35:27.385Z,13.90
2019-05-20T04:36:31.215Z,13.90
2019-05-20T04:37:35.341Z,13.90
2019-05-20T04:38:38.952Z,14.00
2019-05-20T04:39:43.089Z,14.00
2019-05-20T04:40:46.727Z,14.00
2019-05-20T04:41:50.890Z,14.00
2019-05-20T04:42:54.532Z,14.00
2019-05-20T04:43:59.237Z,14.00
2019-05-20T04:45:02.832Z,14.00
2019-05-20T04:46:06.952Z,14.00
2019-05-20T04:47:10.524Z,14.00
2019-05-20T04:48:14.657Z,14.00
2019-05-20T04:49:18.248Z,14.00
2019-05-20T04:50:22.376Z,14.10
2019-05-20T04:51:25.972Z,14.10
2019-05-20T04:52:30.094Z,14.10
2019-05-20T04:53:33.683Z,14.20
2019-05-20T04:54:37.791Z,14.20
2019-05-20T04:55:41.403Z,14.20
2019-05-20T04:56:45.536Z,14.20
2019-05-20T04:57:49.161Z,14.20
2019-05-20T04:58:53.231Z,14.20
2019-05-20T04:59:56.795Z,14.30
2019-05-20T05:01:01.041Z,14.30
2019-05-20T05:02:04.610Z,14.40
2019-05-20T05:03:08.741Z,14.50
2019-05-20T05:04:12.326Z,14.50
2019-05-20T05:05:16.602Z,14.50
2019-05-20T05:06:20.207Z,14.50
2019-05-20T05:07:24.340Z,14.60
2019-05-20T05:08:27.978Z,14.60
2019-05-20T05:09:32.108Z,14.70
2019-05-20T05:10:35.710Z,14.70
2019-05-20T05:11:39.915Z,14.70
2019-05-20T05:12:43.495Z,14.80
2019-05-20T05:13:47.636Z,14.80
2019-05-20T05:14:51.187Z,14.90
2019-05-20T05:15:55.406Z,14.90
2019-05-20T05:16:58.984Z,14.90
2019-05-20T05:18:03.148Z,15.00
2019-05-20T05:19:06.739Z,15.10
2019-05-20T05:20:18.023Z,15.10
2019-05-20T05:21:16.422Z,15.10
2019-05-20T05:22:20.615Z,15.20
2019-05-20T05:23:24.734Z,15.20
2019-05-20T05:24:28.970Z,15.20
2019-05-20T05:25:33.016Z,15.20
2019-05-20T05:26:37.178Z,15.30
2019-05-20T05:27:40.710Z,15.30
2019-05-20T05:28:44.850Z,15.40
2019-05-20T05:29:48.460Z,15.40
2019-05-20T05:30:52.661Z,15.40
2019-05-20T05:31:56.239Z,15.50
2019-05-20T05:33:00.373Z,15.50
2019-05-20T05:34:03.953Z,15.50
2019-05-20T05:35:08.273Z,15.60
2019-05-20T05:36:11.836Z,15.60
2019-05-20T05:37:16.032Z,15.60
2019-05-20T05:38:19.599Z,15.60
2019-05-20T05:39:23.749Z,15.60
2019-05-20T05:40:31.233Z,15.50
2019-05-20T05:41:35.374Z,15.50
2019-05-20T05:42:38.946Z,15.50
2019-05-20T05:43:43.067Z,15.60
2019-05-20T05:44:46.704Z,15.60
2019-05-20T05:45:52.200Z,15.60
2019-05-20T05:46:57.390Z,15.60
2019-05-20T05:48:02.215Z,15.60
2019-05-20T05:49:05.846Z,15.60
2019-05-20T05:50:10.404Z,15.60
2019-05-20T05:51:14.013Z,15.60
2019-05-20T05:52:18.140Z,15.60
2019-05-20T05:53:21.749Z,15.60
2019-05-20T05:54:25.874Z,15.60
2019-05-20T05:55:29.456Z,15.70
2019-05-20T05:56:33.574Z,15.80
2019-05-20T05:57:37.146Z,15.80
2019-05-20T05:58:41.311Z,15.90
2019-05-20T05:59:44.888Z,15.90
2019-05-20T06:00:49.029Z,15.90
2019-05-20T06:01:52.611Z,16.00
2019-05-20T06:02:56.818Z,16.00
2019-05-20T06:04:00.412Z,16.00
2019-05-20T06:05:05.483Z,16.10
2019-05-20T06:06:12.743Z,16.10
2019-05-20T06:07:14.858Z,16.10
2019-05-20T06:08:18.527Z,16.00
2019-05-20T06:09:22.874Z,16.00
2019-05-20T06:10:26.442Z,16.00
2019-05-20T06:11:30.593Z,16.10
2019-05-20T06:12:34.167Z,16.10
2019-05-20T06:13:38.304Z,16.10
2019-05-20T06:14:41.881Z,16.20
2019-05-20T06:15:46.005Z,16.20
2019-05-20T06:16:49.630Z,16.20
2019-05-20T06:17:53.768Z,16.30
2019-05-20T06:18:57.335Z,16.40
2019-05-20T06:20:01.484Z,16.50
2019-05-20T06:21:05.146Z,16.50
2019-05-20T06:22:09.272Z,16.60
2019-05-20T06:23:12.852Z,16.60
2019-05-20T06:24:17.020Z,16.60
2019-05-20T06:25:20.677Z,16.60
2019-05-20T06:26:24.791Z,16.60
2019-05-20T06:27:28.373Z,16.70
2019-05-20T06:28:32.539Z,16.70
2019-05-20T06:29:36.144Z,16.80
2019-05-20T06:30:42.406Z,16.80
2019-05-20T06:31:46.056Z,16.80
2019-05-20T06:32:50.191Z,16.80
2019-05-20T06:33:53.853Z,16.90
2019-05-20T06:34:58.014Z,16.90
2019-05-20T06:36:01.740Z,16.90
2019-05-20T06:37:07.112Z,16.90
2019-05-20T06:38:12.406Z,16.90
2019-05-20T06:39:16.555Z,17.00
2019-05-20T06:40:20.397Z,17.00
2019-05-20T06:41:24.536Z,17.00
2019-05-20T06:42:28.909Z,16.80
2019-05-20T06:43:33.035Z,16.80
2019-05-20T06:44:51.813Z,16.60
2019-05-20T06:45:42.449Z,16.50
2019-05-20T06:46:46.064Z,16.40
2019-05-20T06:47:50.199Z,16.50
2019-05-20T06:48:53.812Z,16.50
2019-05-20T06:49:57.940Z,16.50
2019-05-20T06:51:01.587Z,16.50
2019-05-20T06:52:05.716Z,16.40
2019-05-20T06:53:09.299Z,16.50
2019-05-20T06:54:13.487Z,16.40
2019-05-20T06:55:17.268Z,16.50
2019-05-20T06:56:21.390Z,16.60
2019-05-20T06:57:24.963Z,16.70
2019-05-20T06:58:29.092Z,16.70
2019-05-20T06:59:32.704Z,16.80
2019-05-20T07:00:38.672Z,16.90
2019-05-20T07:01:42.534Z,16.90
2019-05-20T07:02:46.680Z,16.90
2019-05-20T07:03:50.312Z,16.80
2019-05-20T07:04:54.508Z,16.70
2019-05-20T07:05:58.155Z,16.70
2019-05-20T07:07:02.282Z,16.70
2019-05-20T07:08:06.056Z,16.80
2019-05-20T07:09:10.289Z,16.90
2019-05-20T07:10:14.055Z,16.90
2019-05-20T07:11:18.253Z,17.00
2019-05-20T07:12:21.829Z,17.10
2019-05-20T07:13:25.988Z,17.20
2019-05-20T07:14:29.572Z,17.30
2019-05-20T07:15:33.708Z,17.30
2019-05-20T07:16:37.287Z,17.40
2019-05-20T07:17:41.430Z,17.60
2019-05-20T07:18:45.027Z,17.50
2019-05-20T07:19:49.159Z,17.70
2019-05-20T07:20:52.739Z,17.60
2019-05-20T07:21:56.870Z,17.60
2019-05-20T07:23:00.451Z,17.50
2019-05-20T07:24:05.336Z,17.50
2019-05-20T07:25:08.971Z,17.50
2019-05-20T07:26:13.130Z,17.60
2019-05-20T07:27:16.781Z,17.60
2019-05-20T07:28:20.906Z,17.60
2019-05-20T07:29:24.495Z,17.70
2019-05-20T07:30:28.648Z,17.70
2019-05-20T07:31:32.228Z,17.80
2019-05-20T07:32:36.375Z,17.90
2019-05-20T07:33:40.012Z,18.00
2019-05-20T07:34:44.136Z,18.10
2019-05-20T07:35:47.750Z,18.20
2019-05-20T07:37:02.638Z,18.20
2019-05-20T07:37:57.196Z,18.20
2019-05-20T07:39:01.359Z,18.30
2019-05-20T07:40:06.808Z,18.20
2019-05-20T07:41:11.035Z,18.10
2019-05-20T07:42:14.622Z,18.20
2019-05-20T07:43:18.746Z,18.10
2019-05-20T07:44:22.335Z,18.20
2019-05-20T07:45:26.557Z,18.20
2019-05-20T07:46:30.612Z,18.30
2019-05-20T07:47:35.135Z,18.40
2019-05-20T07:48:39.774Z,18.50
2019-05-20T07:49:44.134Z,18.60
2019-05-20T07:50:49.080Z,18.60
2019-05-20T07:51:53.765Z,18.60
2019-05-20T07:53:00.424Z,18.70
2019-05-20T07:54:04.047Z,18.80
2019-05-20T07:55:08.765Z,18.90
2019-05-20T07:56:18.967Z,19.00
2019-05-20T07:57:25.376Z,19.10
2019-05-20T07:58:33.699Z,19.20
2019-05-20T07:59:40.498Z,19.30
2019-05-20T08:00:44.633Z,19.40
2019-05-20T08:01:48.212Z,19.50
2019-05-20T08:02:52.444Z,19.60
2019-05-20T08:03:56.023Z,19.70
2019-05-20T08:05:00.514Z,19.90
2019-05-20T08:06:04.482Z,20.00
2019-05-20T08:07:26.649Z,20.10
2019-05-20T08:08:14.234Z,20.20
2019-05-20T08:09:18.378Z,20.20
2019-05-20T08:10:22.096Z,20.30
2019-05-20T08:11:26.215Z,20.40
2019-05-20T08:12:29.903Z,20.60
2019-05-20T08:13:34.060Z,20.60
2019-05-20T08:14:37.643Z,20.60
2019-05-20T08:15:41.777Z,20.70
2019-05-20T08:16:45.374Z,20.80
2019-05-20T08:17:49.520Z,20.80
2019-05-20T08:18:53.101Z,21.00
2019-05-20T08:19:57.228Z,21.10
2019-05-20T08:21:00.803Z,21.30
2019-05-20T08:22:04.936Z,21.40
2019-05-20T08:23:08.534Z,21.50
2019-05-20T08:24:12.658Z,21.60
2019-05-20T08:25:16.598Z,21.60
2019-05-20T08:26:20.840Z,21.50
2019-05-20T08:27:24.418Z,21.50
2019-05-20T08:28:28.621Z,21.50
2019-05-20T08:29:32.480Z,21.50
2019-05-20T08:30:38.752Z,21.50
2019-05-20T08:31:42.375Z,21.50
2019-05-20T08:32:46.523Z,21.70
2019-05-20T08:33:50.094Z,21.80
2019-05-20T08:34:54.223Z,22.00
2019-05-20T08:35:57.796Z,22.10
2019-05-20T08:37:01.975Z,22.10
2019-05-20T08:38:05.940Z,22.20
2019-05-20T08:39:10.124Z,22.30
2019-05-20T08:40:14.220Z,22.40
2019-05-20T08:41:18.357Z,22.50
2019-05-20T08:42:21.936Z,22.50
2019-05-20T08:43:26.063Z,22.50
2019-05-20T08:44:29.647Z,22.60
2019-05-20T08:45:33.882Z,22.60
2019-05-20T08:46:37.454Z,22.60
2019-05-20T08:47:41.583Z,22.50
2019-05-20T08:48:45.193Z,22.50
2019-05-20T08:49:49.601Z,22.40
2019-05-20T08:50:53.327Z,22.50
2019-05-20T08:51:57.473Z,22.50
2019-05-20T08:53:01.065Z,22.40
2019-05-20T08:54:05.270Z,22.30
2019-05-20T08:55:09.034Z,22.40
2019-05-20T08:56:13.186Z,22.30
2019-05-20T08:57:16.806Z,22.40
2019-05-20T08:58:20.879Z,22.50
2019-05-20T08:59:24.454Z,22.50
2019-05-20T09:00:28.632Z,22.60
2019-05-20T09:01:32.203Z,22.50
2019-05-20T09:02:36.331Z,22.50
2019-05-20T09:03:39.902Z,22.50
2019-05-20T09:04:44.044Z,22.60
2019-05-20T09:05:47.660Z,22.60
2019-05-20T09:06:51.794Z,22.70
2019-05-20T09:08:02.762Z,22.70
2019-05-20T09:09:01.147Z,22.70
2019-05-20T09:10:05.477Z,22.70
2019-05-20T09:11:09.624Z,22.80
2019-05-20T09:12:13.212Z,22.60
2019-05-20T09:13:17.353Z,22.70
2019-05-20T09:14:20.931Z,22.80
2019-05-20T09:15:25.059Z,22.90
2019-05-20T09:16:28.664Z,23.00
2019-05-20T09:17:32.796Z,23.10
2019-05-20T09:18:36.402Z,23.10
2019-05-20T09:19:40.513Z,23.10
2019-05-20T09:20:44.431Z,23.10
2019-05-20T09:21:48.748Z,23.10
2019-05-20T09:22:52.364Z,23.10
2019-05-20T09:23:56.434Z,23.20
2019-05-20T09:25:00.343Z,23.20
2019-05-20T09:26:04.830Z,23.30
2019-05-20T09:27:08.432Z,23.40
2019-05-20T09:28:12.558Z,23.50
2019-05-20T09:29:16.180Z,23.50
2019-05-20T09:30:20.483Z,23.50
2019-05-20T09:31:24.404Z,23.50
2019-05-20T09:32:28.677Z,23.60
2019-05-20T09:33:32.943Z,23.70
2019-05-20T09:34:37.285Z,23.70
2019-05-20T09:35:40.871Z,23.90
2019-05-20T09:36:44.999Z,24.00
2019-05-20T09:37:48.575Z,24.10
2019-05-20T09:38:52.696Z,24.20
2019-05-20T09:39:56.393Z,24.30
2019-05-20T09:41:00.525Z,24.40
2019-05-20T09:42:04.166Z,24.40
2019-05-20T09:43:08.764Z,24.50
2019-05-20T09:44:12.344Z,24.30
2019-05-20T09:45:16.652Z,24.20
2019-05-20T09:46:20.232Z,24.30
2019-05-20T09:47:24.373Z,24.30
2019-05-20T09:48:27.936Z,24.40
2019-05-20T09:49:32.216Z,24.40
2019-05-20T09:50:35.932Z,24.40
2019-05-20T09:51:40.036Z,24.60
2019-05-20T09:52:43.642Z,24.60
2019-05-20T09:53:47.819Z,24.50
2019-05-20T09:54:51.382Z,24.50
2019-05-20T09:55:55.619Z,24.50
2019-05-20T09:56:59.181Z,24.30
2019-05-20T09:58:03.486Z,24.20
2019-05-20T09:59:07.132Z,24.30
2019-05-20T10:00:11.495Z,24.30
2019-05-20T10:01:15.162Z,24.30
2019-05-20T10:02:19.291Z,24.30
2019-05-20T10:03:22.865Z,24.20
2019-05-20T10:04:27.136Z,24.30
2019-05-20T10:05:30.799Z,24.30
2019-05-20T10:06:34.927Z,24.40
2019-05-20T10:07:38.499Z,24.50
2019-05-20T10:08:44.963Z,24.60
2019-05-20T10:09:47.888Z,24.70
2019-05-20T10:10:52.022Z,24.60
2019-05-20T10:11:55.771Z,24.60
2019-05-20T10:12:59.993Z,24.70
2019-05-20T10:14:03.585Z,24.70
2019-05-20T10:15:08.254Z,24.70
2019-05-20T10:16:11.828Z,24.80
2019-05-20T10:17:15.967Z,24.80
2019-05-20T10:18:35.932Z,24.80
2019-05-20T10:19:25.346Z,24.70
2019-05-20T10:20:28.918Z,24.80
2019-05-20T10:21:33.043Z,24.90
2019-05-20T10:22:36.655Z,25.00
2019-05-20T10:23:40.815Z,25.20
2019-05-20T10:24:44.405Z,25.30
2019-05-20T10:25:48.560Z,25.50
2019-05-20T10:26:52.135Z,25.60
2019-05-20T10:27:57.695Z,25.70
2019-05-20T10:29:01.523Z,25.70
2019-05-20T10:30:08.722Z,25.90
2019-05-20T10:31:12.291Z,26.00
2019-05-20T10:32:16.415Z,26.00
2019-05-20T10:33:20.020Z,26.10
2019-05-20T10:34:24.147Z,26.10
2019-05-20T10:35:27.724Z,26.00
2019-05-20T10:36:31.852Z,25.80
2019-05-20T10:37:35.419Z,25.70
2019-05-20T10:38:56.792Z,25.60
2019-05-20T10:39:44.834Z,25.50
2019-05-20T10:40:48.981Z,25.50
2019-05-20T10:41:52.646Z,25.30
2019-05-20T10:42:56.774Z,25.40
2019-05-20T10:44:00.386Z,25.50
2019-05-20T10:45:05.050Z,25.50
2019-05-20T10:46:08.619Z,25.50
2019-05-20T10:47:12.751Z,25.50
2019-05-20T10:48:16.319Z,25.40
2019-05-20T10:49:20.471Z,25.20
2019-05-20T10:50:24.046Z,25.20
2019-05-20T10:51:28.169Z,25.30
2019-05-20T10:52:31.744Z,25.10
2019-05-20T10:53:35.875Z,24.90
2019-05-20T10:54:39.492Z,24.80
2019-05-20T10:55:43.617Z,24.70
2019-05-20T10:56:47.190Z,24.80
2019-05-20T10:57:51.312Z,24.90
2019-05-20T10:58:54.885Z,25.00
2019-05-20T10:59:59.048Z,25.10
2019-05-20T11:01:03.798Z,25.10
2019-05-20T11:02:08.093Z,25.20
2019-05-20T11:03:11.683Z,25.20
2019-05-20T11:04:15.803Z,25.20
2019-05-20T11:05:19.578Z,25.10
2019-05-20T11:06:23.705Z,24.90
2019-05-20T11:07:27.280Z,24.80
2019-05-20T11:08:31.397Z,24.80
2019-05-20T11:09:35.018Z,24.80
2019-05-20T11:10:39.155Z,24.70
2019-05-20T11:11:42.698Z,24.60
2019-05-20T11:12:46.834Z,24.40
2019-05-20T11:13:50.431Z,24.30
2019-05-20T11:14:54.632Z,24.30
2019-05-20T11:15:58.243Z,24.20
2019-05-20T11:17:02.375Z,24.20
2019-05-20T11:18:05.980Z,24.10
2019-05-20T11:19:10.095Z,24.20
2019-05-20T11:20:14.184Z,24.10
2019-05-20T11:21:18.436Z,24.10
2019-05-20T11:22:21.948Z,24.00
2019-05-20T11:23:26.080Z,24.10
2019-05-20T11:24:29.656Z,24.20
2019-05-20T11:25:33.817Z,24.30
2019-05-20T11:26:37.391Z,24.40
2019-05-20T11:27:41.522Z,24.50
2019-05-20T11:28:45.091Z,24.60
2019-05-20T11:29:49.230Z,24.70
2019-05-20T11:30:52.842Z,24.50
2019-05-20T11:31:56.973Z,24.40
2019-05-20T11:33:00.549Z,24.50
2019-05-20T11:34:04.753Z,24.40
2019-05-20T11:35:08.651Z,24.30
2019-05-20T11:36:12.815Z,24.40
2019-05-20T11:37:16.383Z,24.50
2019-05-20T11:38:20.510Z,24.40
2019-05-20T11:39:33.151Z,24.30
2019-05-20T11:40:29.856Z,24.20
2019-05-20T11:41:53.021Z,24.20
2019-05-20T11:42:39.343Z,24.10
2019-05-20T11:43:42.906Z,24.00
2019-05-20T11:44:47.068Z,23.90
2019-05-20T11:45:50.743Z,23.90
2019-05-20T11:46:55.199Z,23.80
2019-05-20T11:47:58.766Z,23.70
2019-05-20T11:49:02.885Z,23.70
2019-05-20T11:50:08.567Z,23.70
2019-05-20T11:51:12.728Z,23.80
2019-05-20T11:52:16.360Z,23.80
2019-05-20T11:53:20.550Z,23.80
2019-05-20T11:54:24.152Z,23.80
2019-05-20T11:55:28.349Z,23.80
2019-05-20T11:56:31.952Z,23.90
2019-05-20T11:57:36.145Z,23.80
2019-05-20T11:58:39.713Z,23.80
2019-05-20T11:59:43.835Z,23.90
2019-05-20T12:00:47.419Z,23.80
2019-05-20T12:01:51.583Z,23.80
2019-05-20T12:02:55.178Z,23.70
2019-05-20T12:03:59.346Z,23.70
2019-05-20T12:05:03.154Z,23.60
2019-05-20T12:06:07.569Z,23.60
2019-05-20T12:07:11.435Z,23.50
2019-05-20T12:08:15.559Z,23.50
2019-05-20T12:09:19.147Z,23.40
2019-05-20T12:10:24.656Z,23.30
2019-05-20T12:11:28.259Z,23.20
2019-05-20T12:12:32.404Z,23.20
2019-05-20T12:13:36.049Z,23.30
2019-05-20T12:14:40.192Z,23.30
2019-05-20T12:15:43.743Z,23.20
2019-05-20T12:16:47.923Z,23.20
2019-05-20T12:17:51.487Z,23.20
2019-05-20T12:18:55.608Z,23.30
2019-05-20T12:19:59.190Z,23.40
2019-05-20T12:21:03.319Z,23.40
2019-05-20T12:22:06.959Z,23.40
2019-05-20T12:23:11.114Z,23.40
2019-05-20T12:24:34.025Z,23.50
2019-05-20T12:25:38.155Z,23.50
2019-05-20T12:26:41.724Z,23.50
2019-05-20T12:27:45.848Z,23.60
2019-05-20T12:28:49.475Z,23.60
2019-05-20T12:29:53.608Z,23.60
2019-05-20T12:30:57.179Z,23.60
2019-05-20T12:32:03.490Z,23.50
2019-05-20T12:33:18.443Z,23.50
2019-05-20T12:34:12.360Z,23.40
2019-05-20T12:35:16.086Z,23.30
2019-05-20T12:36:20.219Z,23.30
2019-05-20T12:37:23.809Z,23.20
2019-05-20T12:38:27.939Z,23.20
2019-05-20T12:39:31.597Z,23.10
2019-05-20T12:40:35.700Z,23.10
2019-05-20T12:41:39.299Z,23.00
2019-05-20T12:42:43.420Z,23.00
2019-05-20T12:43:47.006Z,22.90
2019-05-20T12:44:51.167Z,22.90
2019-05-20T12:45:54.739Z,22.90
2019-05-20T12:46:58.867Z,22.90
2019-05-20T12:48:02.449Z,22.90
2019-05-20T12:50:10.436Z,22.90
2019-05-20T12:51:14.946Z,22.90
2019-05-20T12:52:18.714Z,22.80
2019-05-20T12:53:22.831Z,22.90
2019-05-20T12:54:26.455Z,22.90
2019-05-20T12:55:30.574Z,22.90
2019-05-20T12:56:34.239Z,22.90
2019-05-20T12:57:38.441Z,22.90
2019-05-20T12:58:42.100Z,22.90
2019-05-20T12:59:46.259Z,23.00
2019-05-20T13:00:50.305Z,22.90
2019-05-20T13:01:54.430Z,22.90
2019-05-20T13:02:58.034Z,22.90
2019-05-20T13:04:02.179Z,22.90
2019-05-20T13:05:07.283Z,22.90
2019-05-20T13:06:11.483Z,23.00
2019-05-20T13:07:15.060Z,23.10
2019-05-20T13:08:19.228Z,23.10
2019-05-20T13:09:22.805Z,23.30
2019-05-20T13:10:31.234Z,23.40
2019-05-20T13:11:32.164Z,23.50
2019-05-20T13:12:36.299Z,23.60
2019-05-20T13:13:39.908Z,23.70
2019-05-20T13:14:44.061Z,23.80
2019-05-20T13:15:47.629Z,23.90
2019-05-20T13:16:51.772Z,24.00
2019-05-20T13:17:55.384Z,24.10
2019-05-20T13:18:59.519Z,24.10
2019-05-20T13:20:03.564Z,23.90
2019-05-20T13:21:07.705Z,23.70
2019-05-20T13:22:11.322Z,23.50
2019-05-20T13:23:16.011Z,23.40
2019-05-20T13:24:19.717Z,23.10
2019-05-20T13:25:23.860Z,22.90
2019-05-20T13:26:27.435Z,22.80
2019-05-20T13:27:31.578Z,22.60
2019-05-20T13:28:35.328Z,22.60
2019-05-20T13:29:39.463Z,22.40
2019-05-20T13:30:43.052Z,22.20
2019-05-20T13:31:47.175Z,22.20
2019-05-20T13:32:50.769Z,22.00
2019-05-20T13:33:54.919Z,21.90
2019-05-20T13:34:58.539Z,21.90
2019-05-20T13:36:02.637Z,21.90
2019-05-20T13:37:06.222Z,21.80
2019-05-20T13:38:10.356Z,21.80
2019-05-20T13:39:14.041Z,21.90
2019-05-20T13:40:19.755Z,21.90
2019-05-20T13:41:23.335Z,22.00
2019-05-20T13:42:27.459Z,22.10
2019-05-20T13:43:31.040Z,22.20
2019-05-20T13:44:35.162Z,22.40
2019-05-20T13:45:38.795Z,22.60